Terminal Aerodrome Forecast
Issued by NWS

Home | Current Version | Previous Version | Text Only | Print | Product List | Glossary On
Versions: 1 2 3 4 5 6 7 8 9 10 11 12 13 14 15 16 17 18 19 20 21 22 23 24 25 26 27 28 29
188
FTUS44 KLZK 061941 AAA
TAFHRO
TAF AMD
KHRO 061941Z 0620/0718 35006KT P6SM BKN015 OVC020
     FM062200 35008KT P6SM SCT250
     FM070100 VRB03KT P6SM SCT250
     FM071100 09005KT P6SM SCT060 BKN100=

USA.gov is the U.S. government's official web portal to all federal, state and local government web resources and services.